Terminal Aerodrome Forecast
Issued by NWS

Home | Current Version | Previous Version | Text Only | Print | Product List | Glossary On
Versions: 1 2 3 4 5 6 7 8 9 10 11 12 13 14 15
000
FTUS43 KJKL 291739
TAFSJS
TAF
KSJS 291739Z 2918/3018 VRB06KT P6SM SCT025
     FM291900 28005KT P6SM VCTS SCT025 BKN035CB
     FM300400 VRB03KT 2SM BR VCSH OVC025
     FM301500 VRB06KT P6SM SCT030=

USA.gov is the U.S. government's official web portal to all federal, state and local government web resources and services.